Terminal Aerodrome Forecast
Issued by NWS

Home | Current Version | Previous Version | Text Only | Print | Product List | Glossary Off
Versions: 1 2 3 4 5 6 7 8 9 10 11 12 13 14 15 16 17 18 19 20 21

000
FTUS43 KMPX 180532
TAFRWF
TAF
KRWF 180532Z 1806/1906 13005KT P6SM VCSH OVC100
     FM181200 14005KT P6SM -RA BKN060 OVC100
     FM181800 15012KT P6SM VCSH OVC025
     FM182000 15012KT P6SM OVC020
     FM190400 14008KT P6SM OVC008=

USA.gov is the U.S. government's official web portal to all federal, state and local government web resources and services.